Main page
METAR-TAF:

METAR-TAF

Airports :

Tashkent International Airport

Tashkent, Uzbekistan

latitude: 41-16N, longitude: 069-16E, elevation: 489 m

Current weather observation

The report was made 27 minutes ago, at 13:00 UTC
Wind 6 kt from the North/Northeast
Temperature 8°C
Humidity 71%
Pressure 1027 hPa
Visibility 10 km or more
Overcast at a height of 4200 ft

METAR: UTTT 221300Z 02006KT 9999 OVC042 08/03 Q1027 R08R/CLRD70 NOSIG

Time: 18:27 (13:27 UTC)

Forecast

The report was made 2 hours and 27 minutes ago, at 11:00 UTC
Forecast valid from 22 at 12 UTC to 23 at 12 UTC
Wind 10 kt from the East/Northeast
Visibility: 7000 m
Scattered clouds at a height of 2000 ft
Temporary
from 22 at 20 UTC to 23 at 03 UTC
Wind 2 kt from variable directions
Visibility: 1500 m
Scattered clouds at a height of 700 ft
mist

TAF: UTTT 221100Z 2212/2312 07010KT 7000 SCT020 TEMPO 2220/2303 VRB02KT 1500 BR SCT007

Weather observations and forecasts of more than 4000 airports (METAR and TAF reports).

The available stations are represented by yellow and red dots on the map.

Hover mouse over dot to see the name of the station.

Then click to see weather observations and forecasts.

To change the map : click on the green buttons with a black cross to zoom in, on the green button with a dash to zoom out, or on the green arrows for adjacent maps.


METAR-TAF: